sensor_id;sensor_type;location;lat;lon;timestamp;P1;durP1;ratioP1;P2;durP2;ratioP2
67363;SDS011;54250;45.572;38.086;2023-08-07T00:01:57;10.85;;;3.70;;
67363;SDS011;54250;45.572;38.086;2023-08-07T00:04:23;12.48;;;4.00;;
67363;SDS011;54250;45.572;38.086;2023-08-07T00:06:49;7.43;;;3.63;;
67363;SDS011;54250;45.572;38.086;2023-08-07T00:09:15;11.40;;;4.95;;
67363;SDS011;54250;45.572;38.086;2023-08-07T00:11:40;4.68;;;3.63;;
67363;SDS011;54250;45.572;38.086;2023-08-07T00:14:06;9.38;;;3.78;;
67363;SDS011;54250;45.572;38.086;2023-08-07T00:16:32;8.57;;;4.07;;
67363;SDS011;54250;45.572;38.086;2023-08-07T00:18:58;9.27;;;3.88;;
67363;SDS011;54250;45.572;38.086;2023-08-07T00:21:24;14.55;;;4.97;;
67363;SDS011;54250;45.572;38.086;2023-08-07T00:23:50;7.80;;;4.38;;
67363;SDS011;54250;45.572;38.086;2023-08-07T00:26:16;6.70;;;4.28;;
67363;SDS011;54250;45.572;38.086;2023-08-07T00:28:42;10.00;;;4.25;;
67363;SDS011;54250;45.572;38.086;2023-08-07T00:31:09;10.45;;;5.05;;
67363;SDS011;54250;45.572;38.086;2023-08-07T00:33:34;9.60;;;4.78;;
67363;SDS011;54250;45.572;38.086;2023-08-07T00:36:00;6.45;;;4.45;;
67363;SDS011;54250;45.572;38.086;2023-08-07T00:38:26;9.95;;;5.20;;
67363;SDS011;54250;45.572;38.086;2023-08-07T00:40:53;13.27;;;5.43;;
67363;SDS011;54250;45.572;38.086;2023-08-07T00:43:19;8.00;;;4.43;;
67363;SDS011;54250;45.572;38.086;2023-08-07T00:45:45;16.73;;;5.57;;
67363;SDS011;54250;45.572;38.086;2023-08-07T00:48:12;8.45;;;5.13;;
67363;SDS011;54250;45.572;38.086;2023-08-07T00:50:39;10.45;;;5.40;;
67363;SDS011;54250;45.572;38.086;2023-08-07T00:53:07;8.98;;;5.28;;
67363;SDS011;54250;45.572;38.086;2023-08-07T00:55:33;12.98;;;5.63;;
67363;SDS011;54250;45.572;38.086;2023-08-07T00:57:59;10.88;;;6.32;;
67363;SDS011;54250;45.572;38.086;2023-08-07T01:00:26;13.07;;;6.55;;
67363;SDS011;54250;45.572;38.086;2023-08-07T01:02:55;14.65;;;7.50;;
67363;SDS011;54250;45.572;38.086;2023-08-07T01:05:23;15.15;;;6.50;;
67363;SDS011;54250;45.572;38.086;2023-08-07T01:07:51;19.98;;;7.03;;
67363;SDS011;54250;45.572;38.086;2023-08-07T01:10:23;14.10;;;7.07;;
67363;SDS011;54250;45.572;38.086;2023-08-07T01:13:00;13.82;;;7.35;;
67363;SDS011;54250;45.572;38.086;2023-08-07T01:15:34;14.73;;;6.47;;
67363;SDS011;54250;45.572;38.086;2023-08-07T01:18:02;13.70;;;7.93;;
67363;SDS011;54250;45.572;38.086;2023-08-07T01:20:30;12.27;;;6.68;;
67363;SDS011;54250;45.572;38.086;2023-08-07T01:22:58;11.38;;;6.97;;
67363;SDS011;54250;45.572;38.086;2023-08-07T01:25:23;16.33;;;7.75;;
67363;SDS011;54250;45.572;38.086;2023-08-07T01:30:32;19.17;;;8.35;;
67363;SDS011;54250;45.572;38.086;2023-08-07T01:35:36;13.20;;;8.38;;
67363;SDS011;54250;45.572;38.086;2023-08-07T01:38:08;23.95;;;7.85;;
67363;SDS011;54250;45.572;38.086;2023-08-07T01:40:34;14.32;;;7.93;;
67363;SDS011;54250;45.572;38.086;2023-08-07T01:43:03;14.82;;;8.38;;
67363;SDS011;54250;45.572;38.086;2023-08-07T01:45:29;12.45;;;7.15;;
67363;SDS011;54250;45.572;38.086;2023-08-07T01:47:55;12.05;;;7.82;;
67363;SDS011;54250;45.572;38.086;2023-08-07T01:50:22;13.40;;;7.47;;
67363;SDS011;54250;45.572;38.086;2023-08-07T01:52:49;21.95;;;8.00;;
67363;SDS011;54250;45.572;38.086;2023-08-07T01:55:16;18.98;;;8.30;;
67363;SDS011;54250;45.572;38.086;2023-08-07T02:00:15;20.48;;;7.70;;
67363;SDS011;54250;45.572;38.086;2023-08-07T02:02:41;14.93;;;8.60;;
67363;SDS011;54250;45.572;38.086;2023-08-07T02:05:07;17.13;;;9.48;;
67363;SDS011;54250;45.572;38.086;2023-08-07T02:07:34;18.58;;;9.25;;
67363;SDS011;54250;45.572;38.086;2023-08-07T02:10:01;14.57;;;9.23;;
67363;SDS011;54250;45.572;38.086;2023-08-07T02:12:27;17.38;;;9.40;;
67363;SDS011;54250;45.572;38.086;2023-08-07T02:14:58;21.15;;;10.98;;
67363;SDS011;54250;45.572;38.086;2023-08-07T02:17:25;19.35;;;10.30;;
67363;SDS011;54250;45.572;38.086;2023-08-07T02:19:52;16.50;;;10.45;;
67363;SDS011;54250;45.572;38.086;2023-08-07T02:22:18;18.20;;;10.63;;
67363;SDS011;54250;45.572;38.086;2023-08-07T02:24:45;20.92;;;10.18;;
67363;SDS011;54250;45.572;38.086;2023-08-07T02:27:11;20.58;;;12.05;;
67363;SDS011;54250;45.572;38.086;2023-08-07T02:29:37;20.48;;;11.55;;
67363;SDS011;54250;45.572;38.086;2023-08-07T02:32:03;19.25;;;12.05;;
67363;SDS011;54250;45.572;38.086;2023-08-07T02:34:30;22.50;;;11.48;;
67363;SDS011;54250;45.572;38.086;2023-08-07T02:36:57;15.98;;;10.90;;
67363;SDS011;54250;45.572;38.086;2023-08-07T02:39:24;23.65;;;12.52;;
67363;SDS011;54250;45.572;38.086;2023-08-07T02:41:50;20.75;;;12.90;;
67363;SDS011;54250;45.572;38.086;2023-08-07T02:44:16;14.52;;;11.00;;
67363;SDS011;54250;45.572;38.086;2023-08-07T02:46:43;18.95;;;11.20;;
67363;SDS011;54250;45.572;38.086;2023-08-07T02:49:09;25.10;;;11.93;;
67363;SDS011;54250;45.572;38.086;2023-08-07T02:51:35;18.42;;;10.25;;
67363;SDS011;54250;45.572;38.086;2023-08-07T02:54:01;20.60;;;11.38;;
67363;SDS011;54250;45.572;38.086;2023-08-07T02:56:27;16.35;;;10.23;;
67363;SDS011;54250;45.572;38.086;2023-08-07T02:58:52;14.52;;;9.63;;
67363;SDS011;54250;45.572;38.086;2023-08-07T03:01:19;13.75;;;7.47;;
67363;SDS011;54250;45.572;38.086;2023-08-07T03:03:45;11.73;;;6.97;;
67363;SDS011;54250;45.572;38.086;2023-08-07T03:06:11;11.57;;;5.65;;
67363;SDS011;54250;45.572;38.086;2023-08-07T03:08:37;10.43;;;6.10;;
67363;SDS011;54250;45.572;38.086;2023-08-07T03:11:03;19.75;;;7.60;;
67363;SDS011;54250;45.572;38.086;2023-08-07T03:13:29;21.50;;;6.38;;
67363;SDS011;54250;45.572;38.086;2023-08-07T03:16:02;11.63;;;7.18;;
67363;SDS011;54250;45.572;38.086;2023-08-07T03:18:30;13.05;;;5.88;;
67363;SDS011;54250;45.572;38.086;2023-08-07T03:20:56;8.20;;;5.18;;
67363;SDS011;54250;45.572;38.086;2023-08-07T03:23:22;7.43;;;4.43;;
67363;SDS011;54250;45.572;38.086;2023-08-07T03:25:49;7.55;;;4.47;;
67363;SDS011;54250;45.572;38.086;2023-08-07T03:28:16;6.45;;;4.50;;
67363;SDS011;54250;45.572;38.086;2023-08-07T03:30:43;10.05;;;3.97;;
67363;SDS011;54250;45.572;38.086;2023-08-07T03:33:12;11.32;;;4.05;;
67363;SDS011;54250;45.572;38.086;2023-08-07T03:35:39;9.70;;;4.88;;
67363;SDS011;54250;45.572;38.086;2023-08-07T03:38:07;6.25;;;3.70;;
67363;SDS011;54250;45.572;38.086;2023-08-07T03:40:33;12.32;;;3.50;;
67363;SDS011;54250;45.572;38.086;2023-08-07T03:43:01;8.43;;;3.50;;
67363;SDS011;54250;45.572;38.086;2023-08-07T03:45:27;9.15;;;3.88;;
67363;SDS011;54250;45.572;38.086;2023-08-07T03:47:52;9.00;;;3.55;;
67363;SDS011;54250;45.572;38.086;2023-08-07T03:50:19;14.55;;;3.30;;
67363;SDS011;54250;45.572;38.086;2023-08-07T03:52:45;14.68;;;3.33;;
67363;SDS011;54250;45.572;38.086;2023-08-07T03:55:11;8.63;;;3.03;;
67363;SDS011;54250;45.572;38.086;2023-08-07T03:57:37;13.85;;;3.50;;
67363;SDS011;54250;45.572;38.086;2023-08-07T04:00:03;14.68;;;3.30;;
67363;SDS011;54250;45.572;38.086;2023-08-07T04:02:38;14.55;;;2.83;;
67363;SDS011;54250;45.572;38.086;2023-08-07T04:05:06;11.10;;;2.90;;
67363;SDS011;54250;45.572;38.086;2023-08-07T04:07:32;8.73;;;2.92;;
67363;SDS011;54250;45.572;38.086;2023-08-07T04:09:58;11.55;;;3.28;;
67363;SDS011;54250;45.572;38.086;2023-08-07T04:12:24;6.97;;;2.55;;
67363;SDS011;54250;45.572;38.086;2023-08-07T04:14:50;6.72;;;2.65;;
67363;SDS011;54250;45.572;38.086;2023-08-07T04:17:16;7.60;;;2.45;;
67363;SDS011;54250;45.572;38.086;2023-08-07T04:19:42;9.20;;;2.88;;
67363;SDS011;54250;45.572;38.086;2023-08-07T04:22:08;18.55;;;2.95;;
67363;SDS011;54250;45.572;38.086;2023-08-07T04:24:34;16.83;;;2.40;;
67363;SDS011;54250;45.572;38.086;2023-08-07T04:27:00;3.25;;;2.20;;
67363;SDS011;54250;45.572;38.086;2023-08-07T04:29:26;5.85;;;2.88;;
67363;SDS011;54250;45.572;38.086;2023-08-07T04:31:52;5.95;;;2.47;;
67363;SDS011;54250;45.572;38.086;2023-08-07T04:34:18;6.13;;;2.60;;
67363;SDS011;54250;45.572;38.086;2023-08-07T04:36:44;5.50;;;2.28;;
67363;SDS011;54250;45.572;38.086;2023-08-07T04:39:10;8.02;;;2.67;;
67363;SDS011;54250;45.572;38.086;2023-08-07T04:41:38;7.95;;;2.85;;
67363;SDS011;54250;45.572;38.086;2023-08-07T04:44:04;5.00;;;2.70;;
67363;SDS011;54250;45.572;38.086;2023-08-07T04:46:30;18.77;;;3.00;;
67363;SDS011;54250;45.572;38.086;2023-08-07T04:48:58;8.65;;;2.40;;
67363;SDS011;54250;45.572;38.086;2023-08-07T04:51:26;8.50;;;2.38;;
67363;SDS011;54250;45.572;38.086;2023-08-07T04:53:53;4.78;;;2.08;;
67363;SDS011;54250;45.572;38.086;2023-08-07T04:56:22;16.90;;;2.58;;
67363;SDS011;54250;45.572;38.086;2023-08-07T04:58:47;5.75;;;2.35;;
67363;SDS011;54250;45.572;38.086;2023-08-07T05:01:14;9.85;;;2.03;;
67363;SDS011;54250;45.572;38.086;2023-08-07T05:03:39;6.22;;;1.90;;
67363;SDS011;54250;45.572;38.086;2023-08-07T05:06:05;3.30;;;1.50;;
67363;SDS011;54250;45.572;38.086;2023-08-07T05:08:31;10.18;;;2.25;;
67363;SDS011;54250;45.572;38.086;2023-08-07T05:10:57;9.73;;;1.60;;
67363;SDS011;54250;45.572;38.086;2023-08-07T05:13:23;5.63;;;1.65;;
67363;SDS011;54250;45.572;38.086;2023-08-07T05:15:49;8.82;;;1.60;;
67363;SDS011;54250;45.572;38.086;2023-08-07T05:18:15;3.80;;;1.50;;
67363;SDS011;54250;45.572;38.086;2023-08-07T05:20:41;7.28;;;1.95;;
67363;SDS011;54250;45.572;38.086;2023-08-07T05:23:08;11.82;;;2.40;;
67363;SDS011;54250;45.572;38.086;2023-08-07T05:25:34;5.32;;;1.70;;
67363;SDS011;54250;45.572;38.086;2023-08-07T05:28:00;9.43;;;1.60;;
67363;SDS011;54250;45.572;38.086;2023-08-07T05:30:25;4.15;;;1.98;;
67363;SDS011;54250;45.572;38.086;2023-08-07T05:32:51;6.10;;;1.90;;
67363;SDS011;54250;45.572;38.086;2023-08-07T05:35:17;5.75;;;2.10;;
67363;SDS011;54250;45.572;38.086;2023-08-07T05:37:43;8.13;;;1.80;;
67363;SDS011;54250;45.572;38.086;2023-08-07T05:40:09;14.23;;;2.00;;
67363;SDS011;54250;45.572;38.086;2023-08-07T05:42:37;5.75;;;1.90;;
67363;SDS011;54250;45.572;38.086;2023-08-07T05:45:03;5.30;;;1.80;;
67363;SDS011;54250;45.572;38.086;2023-08-07T05:47:29;5.05;;;1.60;;
67363;SDS011;54250;45.572;38.086;2023-08-07T05:49:55;5.55;;;2.15;;
67363;SDS011;54250;45.572;38.086;2023-08-07T05:52:21;9.50;;;1.70;;
67363;SDS011;54250;45.572;38.086;2023-08-07T05:54:48;7.22;;;1.45;;
67363;SDS011;54250;45.572;38.086;2023-08-07T05:57:14;8.70;;;1.75;;
67363;SDS011;54250;45.572;38.086;2023-08-07T05:59:40;4.38;;;1.70;;
67363;SDS011;54250;45.572;38.086;2023-08-07T06:02:06;5.10;;;2.13;;
67363;SDS011;54250;45.572;38.086;2023-08-07T06:04:32;3.60;;;2.00;;
67363;SDS011;54250;45.572;38.086;2023-08-07T06:06:58;11.02;;;2.10;;
67363;SDS011;54250;45.572;38.086;2023-08-07T06:09:24;11.23;;;2.08;;
67363;SDS011;54250;45.572;38.086;2023-08-07T06:11:50;4.82;;;2.00;;
67363;SDS011;54250;45.572;38.086;2023-08-07T06:14:16;4.45;;;1.98;;
67363;SDS011;54250;45.572;38.086;2023-08-07T06:16:42;2.80;;;1.83;;
67363;SDS011;54250;45.572;38.086;2023-08-07T06:19:08;3.72;;;1.92;;
67363;SDS011;54250;45.572;38.086;2023-08-07T06:21:34;4.10;;;1.92;;
67363;SDS011;54250;45.572;38.086;2023-08-07T06:24:01;7.30;;;1.80;;
67363;SDS011;54250;45.572;38.086;2023-08-07T06:26:27;10.93;;;2.25;;
67363;SDS011;54250;45.572;38.086;2023-08-07T06:28:52;6.95;;;1.88;;
67363;SDS011;54250;45.572;38.086;2023-08-07T06:31:18;7.22;;;1.98;;
67363;SDS011;54250;45.572;38.086;2023-08-07T06:33:44;14.27;;;2.10;;
67363;SDS011;54250;45.572;38.086;2023-08-07T06:36:10;6.95;;;2.20;;
67363;SDS011;54250;45.572;38.086;2023-08-07T06:38:36;5.90;;;2.05;;
67363;SDS011;54250;45.572;38.086;2023-08-07T06:41:02;6.45;;;1.90;;
67363;SDS011;54250;45.572;38.086;2023-08-07T06:43:29;13.05;;;2.30;;
67363;SDS011;54250;45.572;38.086;2023-08-07T06:45:55;11.30;;;2.28;;
67363;SDS011;54250;45.572;38.086;2023-08-07T06:48:22;14.15;;;2.03;;
67363;SDS011;54250;45.572;38.086;2023-08-07T06:50:49;14.98;;;2.25;;
67363;SDS011;54250;45.572;38.086;2023-08-07T06:53:15;9.32;;;2.33;;
67363;SDS011;54250;45.572;38.086;2023-08-07T06:55:42;6.30;;;1.65;;
67363;SDS011;54250;45.572;38.086;2023-08-07T06:58:08;14.18;;;2.08;;
67363;SDS011;54250;45.572;38.086;2023-08-07T07:00:35;5.18;;;1.40;;
67363;SDS011;54250;45.572;38.086;2023-08-07T07:03:02;7.28;;;1.70;;
67363;SDS011;54250;45.572;38.086;2023-08-07T07:05:28;16.73;;;2.00;;
67363;SDS011;54250;45.572;38.086;2023-08-07T07:07:55;15.65;;;1.98;;
67363;SDS011;54250;45.572;38.086;2023-08-07T07:10:22;6.28;;;2.50;;
67363;SDS011;54250;45.572;38.086;2023-08-07T07:12:48;10.07;;;2.10;;
67363;SDS011;54250;45.572;38.086;2023-08-07T07:15:14;11.73;;;2.30;;
67363;SDS011;54250;45.572;38.086;2023-08-07T07:17:41;11.18;;;2.75;;
67363;SDS011;54250;45.572;38.086;2023-08-07T07:20:07;7.25;;;2.28;;
67363;SDS011;54250;45.572;38.086;2023-08-07T07:22:36;12.00;;;2.70;;
67363;SDS011;54250;45.572;38.086;2023-08-07T07:25:02;8.43;;;2.13;;
67363;SDS011;54250;45.572;38.086;2023-08-07T07:27:29;7.55;;;2.35;;
67363;SDS011;54250;45.572;38.086;2023-08-07T07:29:55;8.85;;;1.95;;
67363;SDS011;54250;45.572;38.086;2023-08-07T07:32:21;9.60;;;2.88;;
67363;SDS011;54250;45.572;38.086;2023-08-07T07:34:47;8.27;;;2.15;;
67363;SDS011;54250;45.572;38.086;2023-08-07T07:37:13;6.07;;;2.35;;
67363;SDS011;54250;45.572;38.086;2023-08-07T07:39:40;9.05;;;2.00;;
67363;SDS011;54250;45.572;38.086;2023-08-07T07:42:06;9.77;;;2.30;;
67363;SDS011;54250;45.572;38.086;2023-08-07T07:44:33;10.35;;;2.80;;
67363;SDS011;54250;45.572;38.086;2023-08-07T07:47:01;11.75;;;2.30;;
67363;SDS011;54250;45.572;38.086;2023-08-07T07:49:27;11.13;;;2.17;;
67363;SDS011;54250;45.572;38.086;2023-08-07T07:51:53;13.95;;;2.35;;
67363;SDS011;54250;45.572;38.086;2023-08-07T07:54:19;6.35;;;1.90;;
67363;SDS011;54250;45.572;38.086;2023-08-07T07:56:45;8.80;;;2.13;;
67363;SDS011;54250;45.572;38.086;2023-08-07T07:59:12;6.05;;;2.30;;
67363;SDS011;54250;45.572;38.086;2023-08-07T08:01:38;9.25;;;1.80;;
67363;SDS011;54250;45.572;38.086;2023-08-07T08:04:04;6.57;;;2.22;;
67363;SDS011;54250;45.572;38.086;2023-08-07T08:06:31;5.55;;;2.00;;
67363;SDS011;54250;45.572;38.086;2023-08-07T08:08:57;7.00;;;1.80;;
67363;SDS011;54250;45.572;38.086;2023-08-07T08:11:23;5.75;;;1.80;;
67363;SDS011;54250;45.572;38.086;2023-08-07T08:13:49;9.35;;;1.90;;
67363;SDS011;54250;45.572;38.086;2023-08-07T08:16:15;5.65;;;2.05;;
67363;SDS011;54250;45.572;38.086;2023-08-07T08:18:41;8.75;;;2.22;;
67363;SDS011;54250;45.572;38.086;2023-08-07T08:21:07;7.22;;;2.60;;
67363;SDS011;54250;45.572;38.086;2023-08-07T08:23:33;4.30;;;1.88;;
67363;SDS011;54250;45.572;38.086;2023-08-07T08:26:01;13.10;;;2.00;;
67363;SDS011;54250;45.572;38.086;2023-08-07T08:28:26;13.27;;;2.22;;
67363;SDS011;54250;45.572;38.086;2023-08-07T08:30:52;11.35;;;2.65;;
67363;SDS011;54250;45.572;38.086;2023-08-07T08:33:18;6.43;;;2.40;;
67363;SDS011;54250;45.572;38.086;2023-08-07T08:35:44;9.32;;;2.28;;
67363;SDS011;54250;45.572;38.086;2023-08-07T08:38:10;10.48;;;2.13;;
67363;SDS011;54250;45.572;38.086;2023-08-07T08:40:37;11.77;;;2.30;;
67363;SDS011;54250;45.572;38.086;2023-08-07T08:43:05;5.97;;;2.15;;
67363;SDS011;54250;45.572;38.086;2023-08-07T08:45:31;12.35;;;2.17;;
67363;SDS011;54250;45.572;38.086;2023-08-07T08:48:00;7.55;;;2.45;;
67363;SDS011;54250;45.572;38.086;2023-08-07T08:50:28;9.25;;;2.38;;
67363;SDS011;54250;45.572;38.086;2023-08-07T08:52:55;6.80;;;2.42;;
67363;SDS011;54250;45.572;38.086;2023-08-07T08:55:22;4.88;;;2.25;;
67363;SDS011;54250;45.572;38.086;2023-08-07T08:57:48;7.70;;;2.20;;
67363;SDS011;54250;45.572;38.086;2023-08-07T09:00:18;10.70;;;2.20;;
67363;SDS011;54250;45.572;38.086;2023-08-07T09:02:49;21.77;;;2.55;;
67363;SDS011;54250;45.572;38.086;2023-08-07T09:05:16;11.15;;;2.40;;
67363;SDS011;54250;45.572;38.086;2023-08-07T09:07:44;8.52;;;2.50;;
67363;SDS011;54250;45.572;38.086;2023-08-07T09:10:12;7.03;;;2.38;;
67363;SDS011;54250;45.572;38.086;2023-08-07T09:12:43;6.18;;;2.50;;
67363;SDS011;54250;45.572;38.086;2023-08-07T09:15:16;7.78;;;2.50;;
67363;SDS011;54250;45.572;38.086;2023-08-07T09:17:44;9.95;;;2.60;;
67363;SDS011;54250;45.572;38.086;2023-08-07T09:20:12;5.43;;;2.25;;
67363;SDS011;54250;45.572;38.086;2023-08-07T09:22:40;10.95;;;2.95;;
67363;SDS011;54250;45.572;38.086;2023-08-07T09:25:07;7.68;;;2.63;;
67363;SDS011;54250;45.572;38.086;2023-08-07T09:27:38;10.13;;;3.03;;
67363;SDS011;54250;45.572;38.086;2023-08-07T09:30:05;12.85;;;3.05;;
67363;SDS011;54250;45.572;38.086;2023-08-07T09:32:35;7.60;;;3.22;;
67363;SDS011;54250;45.572;38.086;2023-08-07T09:35:05;6.35;;;2.83;;
67363;SDS011;54250;45.572;38.086;2023-08-07T09:37:32;7.60;;;3.10;;
67363;SDS011;54250;45.572;38.086;2023-08-07T09:40:01;6.13;;;3.40;;
67363;SDS011;54250;45.572;38.086;2023-08-07T09:42:28;15.60;;;3.35;;
67363;SDS011;54250;45.572;38.086;2023-08-07T09:45:01;9.55;;;3.35;;
67363;SDS011;54250;45.572;38.086;2023-08-07T09:47:27;19.55;;;3.47;;
67363;SDS011;54250;45.572;38.086;2023-08-07T09:49:54;8.05;;;3.13;;
67363;SDS011;54250;45.572;38.086;2023-08-07T09:52:21;7.72;;;3.30;;
67363;SDS011;54250;45.572;38.086;2023-08-07T09:54:49;10.85;;;3.22;;
67363;SDS011;54250;45.572;38.086;2023-08-07T09:57:15;14.27;;;3.60;;
67363;SDS011;54250;45.572;38.086;2023-08-07T09:59:42;9.00;;;3.17;;
67363;SDS011;54250;45.572;38.086;2023-08-07T10:02:08;14.70;;;3.35;;
67363;SDS011;54250;45.572;38.086;2023-08-07T10:04:36;9.23;;;2.88;;
67363;SDS011;54250;45.572;38.086;2023-08-07T10:07:02;6.50;;;3.10;;
67363;SDS011;54250;45.572;38.086;2023-08-07T10:09:29;9.23;;;3.50;;
67363;SDS011;54250;45.572;38.086;2023-08-07T10:11:56;5.07;;;3.17;;
67363;SDS011;54250;45.572;38.086;2023-08-07T10:14:23;5.38;;;2.55;;
67363;SDS011;54250;45.572;38.086;2023-08-07T10:16:50;12.20;;;2.72;;
67363;SDS011;54250;45.572;38.086;2023-08-07T10:19:18;8.60;;;2.70;;
67363;SDS011;54250;45.572;38.086;2023-08-07T10:21:44;10.75;;;3.30;;
67363;SDS011;54250;45.572;38.086;2023-08-07T10:24:10;5.80;;;2.88;;
67363;SDS011;54250;45.572;38.086;2023-08-07T10:26:45;12.90;;;3.22;;
67363;SDS011;54250;45.572;38.086;2023-08-07T10:29:14;7.75;;;3.10;;
67363;SDS011;54250;45.572;38.086;2023-08-07T10:31:43;8.80;;;3.63;;
67363;SDS011;54250;45.572;38.086;2023-08-07T10:34:11;16.92;;;4.80;;
67363;SDS011;54250;45.572;38.086;2023-08-07T10:36:37;10.02;;;3.70;;
67363;SDS011;54250;45.572;38.086;2023-08-07T10:39:15;8.05;;;4.45;;
67363;SDS011;54250;45.572;38.086;2023-08-07T10:41:42;12.00;;;5.10;;
67363;SDS011;54250;45.572;38.086;2023-08-07T10:44:47;13.52;;;6.97;;
67363;SDS011;54250;45.572;38.086;2023-08-07T10:47:13;21.55;;;9.52;;
67363;SDS011;54250;45.572;38.086;2023-08-07T10:49:40;16.48;;;7.80;;
67363;SDS011;54250;45.572;38.086;2023-08-07T10:54:39;18.27;;;8.50;;
67363;SDS011;54250;45.572;38.086;2023-08-07T10:57:11;20.35;;;10.68;;
67363;SDS011;54250;45.572;38.086;2023-08-07T10:59:51;13.20;;;7.00;;
67363;SDS011;54250;45.572;38.086;2023-08-07T11:02:30;25.02;;;13.25;;
67363;SDS011;54250;45.572;38.086;2023-08-07T11:04:58;26.55;;;11.75;;
67363;SDS011;54250;45.572;38.086;2023-08-07T11:07:28;42.50;;;23.92;;
67363;SDS011;54250;45.572;38.086;2023-08-07T11:09:55;23.52;;;8.65;;
67363;SDS011;54250;45.572;38.086;2023-08-07T11:12:26;11.90;;;6.15;;
67363;SDS011;54250;45.572;38.086;2023-08-07T11:14:53;8.77;;;4.60;;
67363;SDS011;54250;45.572;38.086;2023-08-07T11:17:24;11.45;;;4.78;;
67363;SDS011;54250;45.572;38.086;2023-08-07T11:19:50;14.48;;;5.00;;
67363;SDS011;54250;45.572;38.086;2023-08-07T11:22:17;15.27;;;4.97;;
67363;SDS011;54250;45.572;38.086;2023-08-07T11:24:43;10.15;;;5.10;;
67363;SDS011;54250;45.572;38.086;2023-08-07T11:27:09;20.40;;;7.43;;
67363;SDS011;54250;45.572;38.086;2023-08-07T11:29:35;20.80;;;8.70;;
67363;SDS011;54250;45.572;38.086;2023-08-07T11:32:00;18.20;;;10.38;;
67363;SDS011;54250;45.572;38.086;2023-08-07T11:34:27;16.33;;;8.52;;
67363;SDS011;54250;45.572;38.086;2023-08-07T11:36:53;12.18;;;6.65;;
67363;SDS011;54250;45.572;38.086;2023-08-07T11:39:20;4.78;;;3.08;;
67363;SDS011;54250;45.572;38.086;2023-08-07T11:41:46;10.95;;;3.50;;
67363;SDS011;54250;45.572;38.086;2023-08-07T11:44:13;12.90;;;3.80;;
67363;SDS011;54250;45.572;38.086;2023-08-07T11:46:39;10.68;;;4.82;;
67363;SDS011;54250;45.572;38.086;2023-08-07T11:49:05;10.00;;;4.15;;
67363;SDS011;54250;45.572;38.086;2023-08-07T11:51:33;6.47;;;3.13;;
67363;SDS011;54250;45.572;38.086;2023-08-07T11:53:58;8.18;;;2.85;;
67363;SDS011;54250;45.572;38.086;2023-08-07T11:56:25;8.95;;;2.13;;
67363;SDS011;54250;45.572;38.086;2023-08-07T11:58:51;5.72;;;2.58;;
67363;SDS011;54250;45.572;38.086;2023-08-07T12:01:19;11.75;;;2.92;;
67363;SDS011;54250;45.572;38.086;2023-08-07T12:06:22;7.63;;;3.80;;
67363;SDS011;54250;45.572;38.086;2023-08-07T12:08:50;8.77;;;3.58;;
67363;SDS011;54250;45.572;38.086;2023-08-07T12:11:21;13.70;;;3.67;;
67363;SDS011;54250;45.572;38.086;2023-08-07T12:13:47;10.73;;;3.03;;
67363;SDS011;54250;45.572;38.086;2023-08-07T12:16:14;12.35;;;3.42;;
67363;SDS011;54250;45.572;38.086;2023-08-07T12:18:45;13.05;;;3.20;;
67363;SDS011;54250;45.572;38.086;2023-08-07T12:21:13;23.10;;;3.75;;
67363;SDS011;54250;45.572;38.086;2023-08-07T12:23:41;8.77;;;2.63;;
67363;SDS011;54250;45.572;38.086;2023-08-07T12:26:07;11.25;;;2.85;;
67363;SDS011;54250;45.572;38.086;2023-08-07T12:28:34;9.13;;;3.92;;
67363;SDS011;54250;45.572;38.086;2023-08-07T12:31:01;10.90;;;4.40;;
67363;SDS011;54250;45.572;38.086;2023-08-07T12:33:30;10.02;;;3.50;;
67363;SDS011;54250;45.572;38.086;2023-08-07T12:35:57;7.45;;;3.03;;
67363;SDS011;54250;45.572;38.086;2023-08-07T12:38:24;7.43;;;3.25;;
67363;SDS011;54250;45.572;38.086;2023-08-07T12:40:50;14.80;;;3.85;;
67363;SDS011;54250;45.572;38.086;2023-08-07T12:43:16;7.63;;;3.40;;
67363;SDS011;54250;45.572;38.086;2023-08-07T12:45:42;12.27;;;4.30;;
67363;SDS011;54250;45.572;38.086;2023-08-07T12:48:08;14.45;;;3.15;;
67363;SDS011;54250;45.572;38.086;2023-08-07T12:50:35;7.47;;;3.70;;
67363;SDS011;54250;45.572;38.086;2023-08-07T12:53:01;12.52;;;4.90;;
67363;SDS011;54250;45.572;38.086;2023-08-07T12:55:27;11.00;;;2.70;;
67363;SDS011;54250;45.572;38.086;2023-08-07T12:57:54;7.03;;;2.75;;
67363;SDS011;54250;45.572;38.086;2023-08-07T13:00:21;13.63;;;2.95;;
67363;SDS011;54250;45.572;38.086;2023-08-07T13:02:48;8.60;;;2.90;;
67363;SDS011;54250;45.572;38.086;2023-08-07T13:05:16;8.48;;;3.10;;
67363;SDS011;54250;45.572;38.086;2023-08-07T13:07:44;7.00;;;2.75;;
67363;SDS011;54250;45.572;38.086;2023-08-07T13:10:11;11.15;;;2.63;;
67363;SDS011;54250;45.572;38.086;2023-08-07T13:12:39;7.47;;;2.78;;
67363;SDS011;54250;45.572;38.086;2023-08-07T13:15:07;9.43;;;2.97;;
67363;SDS011;54250;45.572;38.086;2023-08-07T13:17:35;5.43;;;2.10;;
67363;SDS011;54250;45.572;38.086;2023-08-07T13:20:02;6.63;;;2.42;;
67363;SDS011;54250;45.572;38.086;2023-08-07T13:22:34;12.32;;;2.42;;
67363;SDS011;54250;45.572;38.086;2023-08-07T13:25:03;7.65;;;2.40;;
67363;SDS011;54250;45.572;38.086;2023-08-07T13:27:30;5.88;;;2.63;;
67363;SDS011;54250;45.572;38.086;2023-08-07T13:29:57;12.98;;;2.88;;
67363;SDS011;54250;45.572;38.086;2023-08-07T13:32:23;7.80;;;2.25;;
67363;SDS011;54250;45.572;38.086;2023-08-07T13:34:52;6.40;;;2.63;;
67363;SDS011;54250;45.572;38.086;2023-08-07T13:37:18;11.90;;;2.25;;
67363;SDS011;54250;45.572;38.086;2023-08-07T13:39:44;7.07;;;2.20;;
67363;SDS011;54250;45.572;38.086;2023-08-07T13:42:10;10.93;;;2.92;;
67363;SDS011;54250;45.572;38.086;2023-08-07T13:44:37;14.98;;;2.75;;
67363;SDS011;54250;45.572;38.086;2023-08-07T13:47:04;8.23;;;2.75;;
67363;SDS011;54250;45.572;38.086;2023-08-07T13:49:30;16.98;;;3.22;;
67363;SDS011;54250;45.572;38.086;2023-08-07T13:51:56;10.95;;;3.53;;
67363;SDS011;54250;45.572;38.086;2023-08-07T13:54:22;11.57;;;3.42;;
67363;SDS011;54250;45.572;38.086;2023-08-07T13:56:48;5.47;;;3.28;;
67363;SDS011;54250;45.572;38.086;2023-08-07T13:59:14;5.32;;;3.05;;
67363;SDS011;54250;45.572;38.086;2023-08-07T14:01:40;6.00;;;3.20;;
67363;SDS011;54250;45.572;38.086;2023-08-07T14:04:06;7.78;;;3.15;;
67363;SDS011;54250;45.572;38.086;2023-08-07T14:06:32;8.95;;;2.65;;
67363;SDS011;54250;45.572;38.086;2023-08-07T14:08:58;8.60;;;3.05;;
67363;SDS011;54250;45.572;38.086;2023-08-07T14:11:24;5.47;;;2.60;;
67363;SDS011;54250;45.572;38.086;2023-08-07T14:13:56;8.45;;;2.65;;
67363;SDS011;54250;45.572;38.086;2023-08-07T14:16:22;9.45;;;2.70;;
67363;SDS011;54250;45.572;38.086;2023-08-07T14:18:48;18.15;;;2.63;;
67363;SDS011;54250;45.572;38.086;2023-08-07T14:21:14;6.72;;;2.40;;
67363;SDS011;54250;45.572;38.086;2023-08-07T14:23:41;7.78;;;2.15;;
67363;SDS011;54250;45.572;38.086;2023-08-07T14:26:08;5.28;;;2.47;;
67363;SDS011;54250;45.572;38.086;2023-08-07T14:28:33;7.65;;;2.80;;
67363;SDS011;54250;45.572;38.086;2023-08-07T14:30:59;12.30;;;2.85;;
67363;SDS011;54250;45.572;38.086;2023-08-07T14:33:26;6.68;;;2.58;;
67363;SDS011;54250;45.572;38.086;2023-08-07T14:35:53;11.25;;;2.70;;
67363;SDS011;54250;45.572;38.086;2023-08-07T14:38:19;9.82;;;2.53;;
67363;SDS011;54250;45.572;38.086;2023-08-07T14:40:45;8.55;;;2.70;;